Airport View

Enter AWOS ICAO identifier for current METAR.

ex. KFNL

KU42 201130Z AUTO 00000KT 5SM SCT050 OVC065 05/05 A2962 RMK AO1 T00500050

20 Nov 2019 11:34

Frequency: 134.425

Phone: 801-562-0271

Other Area AWOS: KSLC - KTVY - KHCR - K36U

TAF AMD KSLC 200904Z 2009/2112 15005KT P6SM VCSH SCT080 BKN100 FM201400 32006KT P6SM -RA SCT035 BKN050 OVC080 FM202000 32012G20KT P6SM -RA SCT015 OVC035 FM210300 28005KT P6SM SCT005 BKN035